Petersville, Texas
Current Conditions -  °F | °C
As of 6:51 PM on Tuesday 25 Nov 2014 (Local Time) from KVCT Reporting Station
Clear Clear  
Wind Chill: 55°   Ceiling: Unl
Heat Index: 55°   Visibility: 10mi
Dew Point: 34°   Wind: 6mph
Humidity: 45%   Direction: 170°S
Pressure: 30.25"   Gusts: NA
Location:  29.2421°N, 97.0692°W
Report Text: KVCT 260051Z 17005KT 10SM CLR 13/01 A3025 RMK AO2 SLP242 T01280011
Loading
Personal Weather Stations






























Interactive Weather Map New forecast layout! Learn more

10-Day Weather Forecast

Advertisements
Track Severe Weather on mobile